HomeShort term forecast

Short term forecast

Graphical weather forecast for the next 48 hours for Montreal:
Short term forecast
This weather forecast is automatically refreshed every 3 hours.

Hourly Experimental Forecast for the next 48 hours ®

Overall summary: Partly cloudy starting tonight.

 Date & Hour   Temp   Feel   Baro   Hum   Speed & Bearing   Precipitation   Visibility   Cloud cover   Conditions 
 21/07/2017 - 15:00  28.3°C  29.4°C  1008.1 hPa  56%  20.2 km/h   0.11 mm/h  16.1km  7%  Clear 
 21/07/2017 - 16:00  28.7°C  29.8°C  1008.1 hPa  54%  20.8 km/h   0.17 mm/h  16.1km  11%  Drizzle 
 21/07/2017 - 17:00  28.5°C  29.2°C  1008.2 hPa  52%  20.0 km/h   --  16.1km  14%  Clear 
 21/07/2017 - 18:00  28.0°C  28.6°C  1008.1 hPa  53%  18.2 km/h   --  16.1km  13%  Clear 
 21/07/2017 - 19:00  26.5°C  27.4°C  1008.3 hPa  58%  15.7 km/h   --  16.1km  10%  Clear 
 21/07/2017 - 20:00  25.2°C  25.3°C  1008.5 hPa  62%  13.1 km/h   --  16.1km  8%  Clear 
 21/07/2017 - 21:00  23.7°C  23.9°C  1008.7 hPa  67%  11.6 km/h   --  16.1km  11%  Clear 
 21/07/2017 - 22:00  22.7°C  22.8°C  1009.1 hPa  71%  11.2 km/h   --  16.1km  16%  Clear 
 21/07/2017 - 23:00  21.8°C  21.9°C  1009.5 hPa  73%  10.8 km/h   --  16.1km  26%  Partly Cloudy 
 22/07/2017 - 00:00  20.9°C  20.9°C  1009.7 hPa  73%  9.7 km/h   --  16.1km  23%  Clear 
 22/07/2017 - 01:00  20.1°C  20.1°C  1010.1 hPa  73%  9.1 km/h   --  16.1km  35%  Partly Cloudy 
 22/07/2017 - 02:00  19.5°C  19.5°C  1010.4 hPa  72%  9.8 km/h   --  16.1km  29%  Partly Cloudy 
 22/07/2017 - 03:00  19.0°C  19.0°C  1010.8 hPa  72%  9.3 km/h   --  16.1km  31%  Partly Cloudy 
 22/07/2017 - 04:00  18.4°C  18.4°C  1010.9 hPa  73%  7.9 km/h   --  16.1km  49%  Partly Cloudy 
 22/07/2017 - 05:00  17.4°C  17.4°C  1011.3 hPa  75%  7.9 km/h   --  16.1km  53%  Partly Cloudy 
 22/07/2017 - 06:00  16.6°C  16.6°C  1011.9 hPa  75%  9.2 km/h   --  16.1km  49%  Partly Cloudy 
 22/07/2017 - 07:00  16.3°C  16.3°C  1012.5 hPa  72%  11.1 km/h   --  16.1km  43%  Partly Cloudy 
 22/07/2017 - 08:00  16.7°C  16.7°C  1013.0 hPa  67%  12.1 km/h   --  16.1km  40%  Partly Cloudy 
 22/07/2017 - 09:00  17.5°C  17.5°C  1013.2 hPa  62%  10.8 km/h   --  16.1km  47%  Partly Cloudy 
 22/07/2017 - 10:00  18.6°C  18.6°C  1013.3 hPa  58%  8.3 km/h   --  16.1km  60%  Mostly Cloudy 
 22/07/2017 - 11:00  19.6°C  19.6°C  1013.2 hPa  54%  6.8 km/h   --  16.1km  69%  Mostly Cloudy 
 22/07/2017 - 12:00  20.5°C  20.5°C  1012.9 hPa  52%  6.0 km/h   --  16.1km  67%  Mostly Cloudy 
 22/07/2017 - 13:00  21.6°C  21.6°C  1012.4 hPa  49%  7.7 km/h   --  16.1km  65%  Mostly Cloudy 
 22/07/2017 - 14:00  22.5°C  22.5°C  1011.9 hPa  48%  9.1 km/h   --  16.1km  63%  Mostly Cloudy 
 22/07/2017 - 15:00  23.6°C  23.6°C  1011.4 hPa  45%  10.3 km/h   --  16.1km  64%  Mostly Cloudy 
 22/07/2017 - 16:00  24.4°C  24.4°C  1010.8 hPa  44%  11.6 km/h   --  16.1km  66%  Mostly Cloudy 
 22/07/2017 - 17:00  24.7°C  24.7°C  1010.5 hPa  43%  12.3 km/h   --  16.1km  68%  Mostly Cloudy 
 22/07/2017 - 18:00  24.2°C  24.2°C  1010.5 hPa  45%  11.8 km/h   --  16.1km  68%  Mostly Cloudy 
 22/07/2017 - 19:00  23.1°C  23.1°C  1010.7 hPa  47%  10.6 km/h   --  16.1km  68%  Mostly Cloudy 
 22/07/2017 - 20:00  21.5°C  21.5°C  1010.9 hPa  51%  9.8 km/h   --  16.1km  65%  Mostly Cloudy 
 22/07/2017 - 21:00  20.1°C  20.1°C  1011.3 hPa  54%  9.9 km/h   --  16.1km  48%  Partly Cloudy 
 22/07/2017 - 22:00  18.6°C  18.6°C  1011.7 hPa  56%  10.4 km/h   --  16.1km  25%  Partly Cloudy 
 22/07/2017 - 23:00  17.4°C  17.4°C  1012.0 hPa  58%  10.8 km/h   --  16.1km  7%  Clear 
 23/07/2017 - 00:00  16.6°C  16.6°C  1012.1 hPa  60%  10.9 km/h   --  16.1km  5%  Clear 
 23/07/2017 - 01:00  15.9°C  15.9°C  1012.0 hPa  62%  10.9 km/h   --  16.1km  5%  Clear 
 23/07/2017 - 02:00  15.3°C  15.3°C  1012.0 hPa  64%  10.7 km/h   --  16.1km  4%  Clear 
 23/07/2017 - 03:00  14.4°C  14.4°C  1012.0 hPa  67%  10.1 km/h   --  16.1km  3%  Clear 
 23/07/2017 - 04:00  13.3°C  13.3°C  1011.9 hPa  70%  9.2 km/h   --  16.1km  2%  Clear 
 23/07/2017 - 05:00  12.6°C  12.6°C  1012.0 hPa  72%  8.6 km/h   --  16.1km  1%  Clear 
 23/07/2017 - 06:00  12.8°C  12.8°C  1012.3 hPa  72%  8.4 km/h   --  16.1km  3%  Clear 
 23/07/2017 - 07:00  13.7°C  13.7°C  1012.7 hPa  69%  8.4 km/h   --  16.1km  4%  Clear 
 23/07/2017 - 08:00  15.1°C  15.1°C  1013.0 hPa  64%  8.6 km/h   --  16.1km  5%  Clear 
 23/07/2017 - 09:00  16.7°C  16.7°C  1013.1 hPa  58%  8.9 km/h   --  16.1km  9%  Clear 
 23/07/2017 - 10:00  18.7°C  18.7°C  1013.1 hPa  51%  9.2 km/h   --  16.1km  12%  Clear 
 23/07/2017 - 11:00  20.4°C  20.4°C  1013.0 hPa  46%  9.5 km/h   --  16.1km  14%  Clear 
 23/07/2017 - 12:00  21.6°C  21.6°C  1012.8 hPa  43%  9.4 km/h   --  16.1km  13%  Clear 
 23/07/2017 - 13:00  22.4°C  22.4°C  1012.6 hPa  41%  9.1 km/h   --  16.1km  10%  Clear 
 23/07/2017 - 14:00  23.3°C  23.3°C  1012.4 hPa  39%  8.8 km/h   --  16.1km  10%  Clear 
Test

 

Past weather and reports

Past weatherFind in this section the past weather conditions, weather archive, graphics, reports and statistics.

Current conditions

Current weather condition for MontrealAll you need to know about the current weather conditions for Montreal. Weather data is updated every 10 minutes.

Weather forecast

Current Montreal weatherSince 2004, celinium.com website provides accurate weather forecast for Montreal's island.